Time;durP1;ratioP1;P1;durP2;ratioP2;P2;SDS_P1;SDS_P2;PMS_P1;PMS_P2;Temp;Humidity;BMP_temperature;BMP_pressure;BME280_temperature;BME280_humidity;BME280_pressure;Samples;Min_cycle;Max_cycle;Signal;HPM_P1;HPM_P2
2022/06/28 00:01:53;;;;;;;4.60;3.00;;;;;;;15.47;74.86;95940.98;1785480;79;21532;-64
2022/06/28 00:04:22;;;;;;;3.10;2.52;;;;;;;15.53;74.29;95938.14;1770500;79;21031;-64
2022/06/28 00:06:49;;;;;;;4.47;2.80;;;;;;;15.53;74.34;95939.00;1805913;79;21453;-64
2022/06/28 00:09:16;;;;;;;3.15;2.30;;;;;;;15.48;74.02;95941.41;1805366;79;21058;-64
2022/06/28 00:11:45;;;;;;;2.87;2.33;;;;;;;15.35;74.93;95936.95;1779455;80;21035;-64
2022/06/28 00:17:00;;;;;;;3.70;2.50;;;;;;;15.14;74.98;95933.16;1805613;79;21019;-64
2022/06/28 00:19:28;;;;;;;2.62;2.42;;;;;;;15.09;75.23;95935.08;1805467;79;21050;-64
2022/06/28 00:21:55;;;;;;;2.62;2.42;;;;;;;15.03;75.31;95936.15;1805861;79;21034;-65
2022/06/28 00:24:23;;;;;;;5.17;2.98;;;;;;;15.02;74.93;95935.75;1805789;79;21473;-64
2022/06/28 00:26:50;;;;;;;3.15;2.85;;;;;;;15.03;74.79;95935.28;1805891;79;20995;-64
2022/06/28 00:29:17;;;;;;;6.08;2.67;;;;;;;14.96;74.64;95927.09;1805765;79;20971;-64
2022/06/28 00:31:44;;;;;;;2.52;2.33;;;;;;;14.89;76.45;95928.61;1805700;79;20992;-64
2022/06/28 00:34:11;;;;;;;2.37;2.17;;;;;;;14.79;77.13;95925.82;1805973;79;20992;-64
2022/06/28 00:36:38;;;;;;;4.70;2.35;;;;;;;14.77;77.34;95928.11;1805521;79;21079;-64
2022/06/28 00:39:05;;;;;;;3.65;2.67;;;;;;;14.76;77.61;95932.99;1805489;79;21039;-65
2022/06/28 00:41:34;;;;;;;3.47;2.60;;;;;;;14.78;76.68;95926.72;1805592;79;21429;-64
2022/06/28 00:44:02;;;;;;;2.62;2.33;;;;;;;14.79;76.63;95924.92;1805605;79;21482;-64
2022/06/28 00:46:33;;;;;;;3.72;2.40;;;;;;;14.78;77.23;95927.19;1805801;79;21006;-64
2022/06/28 00:48:59;;;;;;;3.65;2.20;;;;;;;14.76;76.72;95935.65;1805731;79;20972;-64
2022/06/28 00:51:27;;;;;;;2.87;2.40;;;;;;;14.64;76.64;95935.54;1805659;79;21454;-64
2022/06/28 00:53:55;;;;;;;2.90;2.17;;;;;;;14.57;76.89;95934.00;1805869;79;20960;-64
2022/06/28 00:56:22;;;;;;;2.62;2.37;;;;;;;14.52;76.68;95930.58;1806352;79;21453;-64
2022/06/28 00:58:52;;;;;;;3.35;2.50;;;;;;;14.52;76.96;95939.41;1805498;79;21003;-64
2022/06/28 01:01:23;;;;;;;2.58;2.37;;;;;;;14.53;77.89;95932.30;1805705;79;21035;-64
2022/06/28 01:03:51;;;;;;;6.53;2.42;;;;;;;14.59;77.48;95929.06;1805712;79;20963;-64
2022/06/28 01:06:18;;;;;;;3.52;2.30;;;;;;;14.59;77.44;95941.02;1805523;79;21044;-65
2022/06/28 01:08:48;;;;;;;5.53;2.60;;;;;;;14.55;77.90;95934.50;1805478;79;20983;-64
2022/06/28 01:11:20;;;;;;;3.85;2.80;;;;;;;14.54;77.57;95932.73;1805700;79;21070;-64
2022/06/28 01:13:53;;;;;;;2.35;2.10;;;;;;;14.57;77.43;95930.02;1800315;79;21415;-65
2022/06/28 01:16:22;;;;;;;5.17;2.97;;;;;;;14.60;77.36;95929.46;1799592;79;21008;-64
2022/06/28 01:18:51;;;;;;;3.08;2.70;;;;;;;14.70;76.96;95930.06;1800422;79;21450;-64
2022/06/28 01:21:30;;;;;;;4.83;2.40;;;;;;;14.79;76.41;95935.55;1799096;79;21070;-64
2022/06/28 01:23:57;;;;;;;3.05;2.20;;;;;;;14.68;75.98;95935.88;1800267;80;20967;-64
2022/06/28 01:26:38;;;;;;;5.85;2.15;;;;;;;14.50;75.94;95932.80;1754982;79;21038;-64
2022/06/28 01:29:06;;;;;;;3.92;2.55;;;;;;;14.49;75.87;95932.86;1805621;79;21038;-64
2022/06/28 01:31:37;;;;;;;2.67;2.47;;;;;;;14.47;76.08;95942.19;1804551;79;21011;-64
2022/06/28 01:34:04;;;;;;;19.25;13.65;;;;;;;14.46;76.58;95940.89;1805430;79;21340;-64
2022/06/28 01:36:32;;;;;;;2.92;2.52;;;;;;;14.49;76.31;95939.50;1805691;79;21533;-65
2022/06/28 01:39:00;;;;;;;2.90;2.45;;;;;;;14.50;76.52;95940.77;1785422;79;21434;-64
2022/06/28 01:41:33;;;;;;;5.72;2.95;;;;;;;14.44;77.17;95945.40;1805466;79;21034;-64
2022/06/28 01:44:06;;;;;;;3.33;2.95;;;;;;;14.41;76.82;95944.13;1805465;79;20995;-64
2022/06/28 01:46:38;;;;;;;3.83;3.40;;;;;;;14.39;77.12;95942.87;1805877;79;20975;-64
2022/06/28 01:49:07;;;;;;;2.87;2.27;;;;;;;14.29;76.78;95943.58;1805614;79;21051;-65
2022/06/28 01:51:35;;;;;;;3.42;2.30;;;;;;;14.28;76.92;95937.83;1805701;79;21500;-64
2022/06/28 01:54:03;;;;;;;9.80;2.67;;;;;;;14.37;76.76;95935.39;1805821;79;20976;-64
2022/06/28 01:56:35;;;;;;;6.00;2.42;;;;;;;14.43;76.38;95935.67;1805417;79;21004;-65
2022/06/28 01:59:04;;;;;;;3.70;2.42;;;;;;;14.39;76.61;95934.01;1805173;79;21049;-65
2022/06/28 02:01:33;;;;;;;22.95;20.70;;;;;;;14.31;76.24;95940.86;1804346;79;21019;-64
2022/06/28 02:04:01;;;;;;;3.35;3.05;;;;;;;14.29;77.40;95940.92;1805708;79;20989;-64
2022/06/28 02:06:29;;;;;;;3.25;2.92;;;;;;;14.23;77.03;95943.72;1785084;79;21486;-64
2022/06/28 02:08:58;;;;;;;2.98;2.72;;;;;;;14.24;77.30;95940.17;1805575;79;21031;-64
2022/06/28 02:11:26;;;;;;;2.92;2.62;;;;;;;14.28;77.10;95939.63;1804852;79;20982;-64
2022/06/28 02:13:54;;;;;;;4.53;3.10;;;;;;;14.30;76.71;95931.16;1806936;79;21004;-64
2022/06/28 02:16:22;;;;;;;6.70;2.75;;;;;;;14.24;77.65;95933.54;1807995;79;21010;-64
2022/06/28 02:18:49;;;;;;;5.00;3.42;;;;;;;14.18;76.89;95931.03;1808436;79;20951;-64
2022/06/28 02:21:16;;;;;;;3.58;2.67;;;;;;;14.14;76.82;95921.44;1807828;79;20999;-64
2022/06/28 02:23:42;;;;;;;3.87;2.83;;;;;;;14.05;76.77;95934.48;1807948;79;21015;-64
2022/06/28 02:26:11;;;;;;;3.83;3.20;;;;;;;13.96;76.61;95935.17;1808276;79;20998;-64
2022/06/28 02:28:38;;;;;;;3.90;3.20;;;;;;;13.95;76.70;95930.80;1808213;79;21497;-64
2022/06/28 02:31:13;;;;;;;6.50;4.70;;;;;;;13.87;77.76;95936.77;1776802;79;21007;-64
2022/06/28 02:33:42;;;;;;;6.47;4.35;;;;;;;13.90;77.41;95933.56;1808239;79;21006;-64
2022/06/28 02:41:37;;;;;;;3.50;3.20;;;;;;;13.76;78.25;95935.73;1808298;79;21031;-64
2022/06/28 02:44:05;;;;;;;4.55;2.95;;;;;;;13.71;79.35;95943.79;1807500;79;20979;-64
2022/06/28 02:46:31;;;;;;;5.70;3.20;;;;;;;13.71;79.65;95949.09;1808094;79;21027;-64
2022/06/28 02:48:59;;;;;;;4.00;2.77;;;;;;;13.74;78.89;95946.36;1807825;79;21019;-65
2022/06/28 02:51:26;;;;;;;5.42;2.70;;;;;;;13.76;79.55;95930.42;1807940;79;21051;-64
2022/06/28 02:53:54;;;;;;;3.30;2.47;;;;;;;13.76;78.90;95946.33;1808195;79;21039;-64
2022/06/28 02:56:22;;;;;;;4.20;2.25;;;;;;;13.76;78.61;95944.55;1808114;79;21047;-64
2022/06/28 02:58:49;;;;;;;2.50;2.30;;;;;;;13.80;78.01;95944.00;1808110;79;20983;-64
2022/06/28 03:01:15;;;;;;;2.62;2.40;;;;;;;13.78;78.06;95948.46;1807908;79;21007;-64
2022/06/28 03:03:42;;;;;;;3.52;2.98;;;;;;;13.81;77.97;95941.78;1808076;79;20956;-64
2022/06/28 03:06:10;;;;;;;4.62;2.42;;;;;;;13.84;78.62;95942.56;1807862;79;21534;-64
2022/06/28 03:08:37;;;;;;;3.60;2.40;;;;;;;13.81;78.14;95943.11;1808172;79;21453;-64
2022/06/28 03:11:04;;;;;;;3.15;2.80;;;;;;;13.77;79.15;95945.41;1808174;79;20999;-64
2022/06/28 03:13:31;;;;;;;3.00;2.70;;;;;;;13.79;78.62;95950.22;1807024;79;20991;-64
2022/06/28 03:15:58;;;;;;;3.42;3.00;;;;;;;13.79;79.42;95946.25;1805265;79;21064;-64
2022/06/28 03:18:24;;;;;;;4.05;3.65;;;;;;;13.71;79.57;95947.77;1805314;79;21063;-64
2022/06/28 03:20:51;;;;;;;6.83;3.30;;;;;;;13.79;79.64;95937.83;1805372;79;21003;-64
2022/06/28 03:23:19;;;;;;;3.12;2.80;;;;;;;13.89;79.34;95940.25;1805344;79;21078;-64
2022/06/28 03:25:46;;;;;;;3.52;3.20;;;;;;;14.01;79.03;95937.25;1805369;79;21050;-64
2022/06/28 03:28:13;;;;;;;7.78;3.30;;;;;;;14.06;78.87;95926.95;1805701;79;21038;-64
2022/06/28 03:30:41;;;;;;;2.95;2.75;;;;;;;14.20;78.87;95931.87;1805098;79;21086;-64
2022/06/28 03:33:07;;;;;;;3.95;2.80;;;;;;;14.26;78.96;95938.78;1805691;79;21019;-64
2022/06/28 03:35:36;;;;;;;8.10;3.77;;;;;;;14.34;79.13;95939.47;1805763;79;20995;-64
2022/06/28 03:38:03;;;;;;;7.75;3.90;;;;;;;14.48;79.27;95947.03;1785500;79;21046;-64
2022/06/28 03:40:31;;;;;;;6.45;3.87;;;;;;;14.55;78.54;95941.14;1802049;79;21469;-64
2022/06/28 03:42:58;;;;;;;6.05;4.60;;;;;;;14.63;78.49;95943.97;1805646;79;21008;-65
2022/06/28 03:45:25;;;;;;;7.17;4.62;;;;;;;14.69;78.26;95946.90;1805518;79;20979;-64
2022/06/28 03:47:57;;;;;;;6.62;4.30;;;;;;;14.69;78.10;95941.16;1802404;79;21027;-64
2022/06/28 03:50:42;;;;;;;5.67;4.92;;;;;;;14.76;78.07;95948.93;1805638;79;21007;-64
2022/06/28 03:53:11;;;;;;;5.70;5.03;;;;;;;14.83;78.32;95942.06;1805324;79;20968;-65
2022/06/28 03:55:42;;;;;;;6.12;4.92;;;;;;;14.93;78.80;95943.52;1798595;79;21070;-64
2022/06/28 03:58:08;;;;;;;8.18;5.58;;;;;;;15.06;78.34;95945.34;1805566;79;21004;-65
2022/06/28 04:00:35;;;;;;;6.47;5.05;;;;;;;15.21;78.06;95948.46;1805359;79;21003;-65
2022/06/28 04:03:03;;;;;;;6.20;5.00;;;;;;;15.34;77.69;95945.36;1805568;79;21050;-65
2022/06/28 04:05:32;;;;;;;9.08;4.90;;;;;;;15.51;77.12;95955.93;1803528;79;21004;-64
2022/06/28 04:08:00;;;;;;;7.72;5.50;;;;;;;15.63;76.58;95959.99;1805043;79;21021;-65
2022/06/28 04:10:32;;;;;;;6.03;5.42;;;;;;;15.72;75.99;95959.27;1803876;79;21035;-65
2022/06/28 04:13:01;;;;;;;5.45;4.58;;;;;;;15.81;75.87;95970.05;1804683;79;20999;-65
2022/06/28 04:15:28;;;;;;;6.67;4.50;;;;;;;15.86;74.93;95969.91;1799955;79;21015;-65
2022/06/28 04:17:57;;;;;;;6.87;4.35;;;;;;;15.89;74.83;95974.66;1799761;79;21012;-64
2022/06/28 04:20:41;;;;;;;7.03;4.80;;;;;;;15.95;74.80;95965.58;1800433;79;20967;-65
2022/06/28 04:23:08;;;;;;;5.62;5.12;;;;;;;16.05;75.57;95967.48;1800016;79;21016;-65
2022/06/28 04:25:35;;;;;;;6.67;4.70;;;;;;;16.14;76.18;95970.70;1800166;79;21446;-65
2022/06/28 04:28:04;;;;;;;7.80;4.80;;;;;;;16.23;75.94;95973.05;1799092;79;21478;-65
2022/06/28 04:30:31;;;;;;;6.25;4.78;;;;;;;16.27;76.24;95975.14;1779761;79;21482;-64
2022/06/28 04:33:00;;;;;;;7.67;5.00;;;;;;;16.32;75.92;95970.52;1800273;79;20984;-65
2022/06/28 04:35:28;;;;;;;6.20;4.90;;;;;;;16.42;76.26;95970.59;1800344;79;20948;-65
2022/06/28 04:37:56;;;;;;;6.78;4.85;;;;;;;16.56;76.04;95971.92;1800429;79;21015;-65
2022/06/28 04:40:34;;;;;;;5.67;4.72;;;;;;;16.70;75.67;95966.08;1799557;79;20969;-65
2022/06/28 04:43:03;;;;;;;9.75;4.30;;;;;;;16.82;75.25;95967.86;1796045;79;20973;-65
2022/06/28 04:45:30;;;;;;;8.33;4.75;;;;;;;16.96;74.55;95966.45;1797438;79;20955;-65
2022/06/28 04:47:59;;;;;;;8.13;4.65;;;;;;;17.07;74.38;95965.61;1796521;79;21039;-65
2022/06/28 04:50:26;;;;;;;7.50;4.20;;;;;;;17.18;74.25;95966.52;1797733;79;21011;-65
2022/06/28 04:52:52;;;;;;;5.97;4.05;;;;;;;17.31;74.17;95963.77;1797292;79;21008;-65
2022/06/28 04:55:20;;;;;;;6.35;4.53;;;;;;;17.45;73.63;95975.25;1797560;79;20992;-65
2022/06/28 04:57:48;;;;;;;9.15;3.70;;;;;;;17.59;73.00;95977.35;1796032;79;21047;-65
2022/06/28 05:00:18;;;;;;;5.72;3.60;;;;;;;17.79;71.86;95973.44;1797549;80;21003;-65
2022/06/28 05:02:49;;;;;;;8.00;4.17;;;;;;;17.79;71.86;95973.44;1796873;79;21024;-65
2022/06/28 05:05:36;;;;;;;12.93;4.30;;;;;;;17.99;71.83;95982.44;1795052;79;21019;-65
2022/06/28 05:08:03;;;;;;;5.67;3.42;;;;;;;18.16;71.33;95975.45;1797872;79;21004;-65
2022/06/28 05:10:31;;;;;;;7.17;3.98;;;;;;;18.23;69.88;95965.39;1797056;79;21075;-65
2022/06/28 05:13:06;;;;;;;8.63;3.95;;;;;;;18.65;69.86;95974.25;1795985;79;21026;-64
2022/06/28 05:15:33;;;;;;;10.50;3.25;;;;;;;18.65;69.86;95974.25;1804567;79;21047;-65
2022/06/28 05:18:03;;;;;;;5.85;3.40;;;;;;;18.87;69.28;95974.20;1805438;79;20996;-65
2022/06/28 05:20:30;;;;;;;9.23;3.40;;;;;;;19.10;69.20;95978.50;1805629;79;20979;-65
2022/06/28 05:22:57;;;;;;;8.78;3.45;;;;;;;19.25;67.25;95980.46;1805429;79;21070;-64
2022/06/28 05:25:40;;;;;;;10.90;3.90;;;;;;;19.43;67.52;95978.28;1742772;82;21064;-65
2022/06/28 05:28:08;;;;;;;6.05;3.42;;;;;;;19.63;65.38;95975.98;1785035;79;21011;-65
2022/06/28 05:30:34;;;;;;;6.05;3.60;;;;;;;19.82;66.17;95976.45;1805782;79;20988;-64
2022/06/28 05:33:03;;;;;;;6.33;3.58;;;;;;;20.01;65.22;95969.73;1805229;79;21083;-65
2022/06/28 05:35:30;;;;;;;5.90;3.50;;;;;;;20.19;63.97;95974.16;1805750;79;21398;-65
2022/06/28 05:37:58;;;;;;;6.37;3.35;;;;;;;20.32;63.16;95976.60;1805462;79;21067;-65
2022/06/28 05:40:25;;;;;;;10.58;3.62;;;;;;;20.49;63.48;95974.41;1805299;79;21586;-65
2022/06/28 05:42:52;;;;;;;6.60;3.00;;;;;;;20.65;63.44;95968.28;1805521;79;20976;-65
2022/06/28 05:45:19;;;;;;;4.50;2.75;;;;;;;20.80;62.26;95977.33;1805418;79;21004;-64
2022/06/28 05:47:46;;;;;;;4.50;2.60;;;;;;;20.91;61.96;95976.27;1805623;79;21057;-65
2022/06/28 05:50:13;;;;;;;4.45;2.98;;;;;;;21.02;60.73;95975.23;1805676;79;20996;-64
2022/06/28 05:52:39;;;;;;;4.33;3.08;;;;;;;21.13;60.33;95979.54;1805713;79;20987;-65
2022/06/28 05:55:07;;;;;;;3.45;2.70;;;;;;;21.22;59.96;95978.63;1805584;79;21010;-64
2022/06/28 05:57:34;;;;;;;5.10;2.87;;;;;;;21.31;59.65;95983.52;1805899;79;21027;-65
2022/06/28 06:00:01;;;;;;;4.55;3.12;;;;;;;21.35;59.30;95984.61;1805517;79;21446;-65
2022/06/28 06:02:30;;;;;;;5.87;2.98;;;;;;;21.51;59.80;95990.02;1805397;79;21010;-65
2022/06/28 06:04:57;;;;;;;6.95;3.42;;;;;;;21.61;58.94;95987.69;1805947;79;21003;-65
2022/06/28 06:07:24;;;;;;;7.25;2.98;;;;;;;21.70;57.95;95986.33;1805765;79;20991;-65
2022/06/28 06:09:51;;;;;;;10.03;3.00;;;;;;;21.77;56.85;95985.89;1805438;79;21064;-65
2022/06/28 06:12:20;;;;;;;3.95;2.65;;;;;;;21.91;56.84;95991.80;1805714;79;21438;-65
2022/06/28 06:14:46;;;;;;;3.50;2.80;;;;;;;21.97;54.95;95985.20;1805221;79;21093;-65
2022/06/28 06:17:13;;;;;;;6.62;2.87;;;;;;;21.99;55.03;95988.67;1805171;79;21020;-65
2022/06/28 06:19:40;;;;;;;6.12;2.85;;;;;;;22.12;55.89;95977.59;1805691;79;21477;-65
2022/06/28 06:22:07;;;;;;;6.08;3.10;;;;;;;22.26;56.27;95982.22;1805277;79;21054;-65
2022/06/28 06:24:33;;;;;;;6.00;2.92;;;;;;;22.44;56.72;95976.23;1805700;79;21430;-65
2022/06/28 06:27:03;;;;;;;9.25;2.87;;;;;;;22.62;55.88;95974.25;1804983;79;21501;-65
2022/06/28 06:29:30;;;;;;;6.05;2.85;;;;;;;22.70;54.66;95971.95;1805498;79;20967;-65
2022/06/28 06:31:57;;;;;;;3.92;2.72;;;;;;;22.77;54.20;95971.98;1805147;79;21019;-65
2022/06/28 06:34:29;;;;;;;6.87;3.42;;;;;;;22.87;54.13;95974.48;1805751;79;21461;-65
2022/06/28 06:37:00;;;;;;;7.78;3.27;;;;;;;22.95;53.68;95974.02;1805568;79;21039;-65
2022/06/28 06:39:27;;;;;;;7.60;2.85;;;;;;;22.99;52.83;95970.22;1805716;79;20955;-65
2022/06/28 06:41:55;;;;;;;6.78;3.10;;;;;;;23.08;52.67;95966.08;1805131;79;21049;-65
2022/06/28 06:44:22;;;;;;;4.95;3.15;;;;;;;23.23;53.76;95958.88;1804963;79;21003;-65
2022/06/28 06:46:50;;;;;;;9.40;3.25;;;;;;;23.42;53.30;95960.80;1805222;79;21470;-65
2022/06/28 06:49:18;;;;;;;5.15;3.20;;;;;;;23.54;53.09;95956.46;1805329;79;20972;-65
2022/06/28 06:51:45;;;;;;;4.70;2.90;;;;;;;23.69;53.00;95960.00;1804792;79;21038;-65
2022/06/28 06:54:12;;;;;;;4.80;2.80;;;;;;;23.79;51.89;95955.77;1805327;79;21449;-65
2022/06/28 06:56:41;;;;;;;13.32;2.92;;;;;;;23.95;52.54;95955.13;1805475;79;21043;-65
2022/06/28 06:59:13;;;;;;;5.10;2.20;;;;;;;24.14;51.32;95966.03;1785399;79;20983;-65
2022/06/28 07:01:38;;;;;;;2.80;2.50;;;;;;;24.22;48.12;95965.06;1805184;79;21414;-65
2022/06/28 07:04:06;;;;;;;3.67;2.55;;;;;;;24.30;48.25;95964.55;1805623;79;20968;-65
2022/06/28 07:06:33;;;;;;;7.83;2.83;;;;;;;24.40;48.97;95968.34;1805519;79;21000;-65
2022/06/28 07:09:00;;;;;;;4.12;2.80;;;;;;;24.52;48.73;95967.55;1804151;79;21078;-65
2022/06/28 07:11:27;;;;;;;3.65;2.75;;;;;;;24.59;48.44;95962.13;1804640;79;20970;-65
2022/06/28 07:13:55;;;;;;;4.85;2.60;;;;;;;24.78;49.23;95963.05;1805027;79;20948;-65
2022/06/28 07:16:23;;;;;;;3.10;2.80;;;;;;;24.99;48.64;95970.63;1804311;79;21039;-65
2022/06/28 07:18:50;;;;;;;3.72;2.50;;;;;;;25.14;46.73;95970.89;1805116;79;21007;-65
2022/06/28 07:21:17;;;;;;;3.47;2.60;;;;;;;25.25;46.42;95963.44;1784769;79;20976;-65
2022/06/28 07:23:44;;;;;;;4.12;2.60;;;;;;;25.37;47.10;95963.88;1805466;79;21010;-65
2022/06/28 07:26:11;;;;;;;6.35;2.47;;;;;;;25.57;47.49;95969.70;1805516;79;20972;-65
2022/06/28 07:28:38;;;;;;;2.67;2.47;;;;;;;25.72;47.91;95963.67;1805838;79;20968;-65
2022/06/28 07:31:05;;;;;;;6.00;2.37;;;;;;;25.87;47.68;95965.28;1805628;79;20992;-65
2022/06/28 07:33:31;;;;;;;3.62;2.90;;;;;;;26.02;47.18;95972.25;1805895;79;20983;-65
2022/06/28 07:35:59;;;;;;;8.60;2.67;;;;;;;26.18;46.93;95965.70;1805290;79;21051;-65
2022/06/28 07:38:29;;;;;;;7.28;2.60;;;;;;;26.27;46.59;95962.31;1805594;79;21492;-65
2022/06/28 07:41:06;;;;;;;2.37;2.17;;;;;;;26.43;45.46;95960.66;1773190;81;21165;-65
2022/06/28 07:43:51;;;;;;;4.03;2.10;;;;;;;26.58;45.66;95955.45;1805589;79;21481;-65
2022/06/28 07:46:22;;;;;;;4.87;2.50;;;;;;;26.75;44.23;95963.14;1805062;79;21075;-65
2022/06/28 07:48:50;;;;;;;3.90;2.20;;;;;;;26.91;42.71;95964.19;1805550;79;20972;-65
2022/06/28 07:54:01;;;;;;;6.62;2.42;;;;;;;27.23;42.83;95955.39;1773556;81;21531;-65
2022/06/28 07:56:33;;;;;;;3.85;2.40;;;;;;;27.35;41.73;95954.42;1795579;79;21075;-65
2022/06/28 07:59:00;;;;;;;6.15;2.20;;;;;;;27.42;41.84;95954.80;1805638;79;21023;-65
2022/06/28 08:01:29;;;;;;;3.30;2.10;;;;;;;27.42;40.55;95949.38;1805359;79;21061;-65
2022/06/28 08:03:56;;;;;;;2.37;2.20;;;;;;;27.51;41.21;95951.33;1805547;79;21007;-65
2022/06/28 08:06:23;;;;;;;8.25;2.17;;;;;;;27.63;41.49;95950.84;1805447;79;20971;-65
2022/06/28 08:08:51;;;;;;;2.50;2.15;;;;;;;27.74;39.64;95952.17;1805551;79;21015;-65
2022/06/28 08:11:19;;;;;;;2.20;2.10;;;;;;;27.90;40.88;95953.20;1805194;79;21050;-65
2022/06/28 08:13:48;;;;;;;2.40;1.77;;;;;;;28.00;38.27;95957.38;1805517;79;20971;-65
2022/06/28 08:16:15;;;;;;;3.25;2.20;;;;;;;28.05;38.96;95951.92;1798588;79;21048;-64
2022/06/28 08:18:43;;;;;;;3.05;2.25;;;;;;;28.20;38.51;95956.58;1797625;79;21048;-65
2022/06/28 08:21:10;;;;;;;3.72;2.33;;;;;;;28.31;39.59;95946.17;1797496;79;21491;-65
2022/06/28 08:23:37;;;;;;;4.22;2.12;;;;;;;28.44;38.91;95952.78;1797581;79;21509;-65
2022/06/28 08:26:04;;;;;;;3.67;2.22;;;;;;;28.50;37.58;95951.43;1797747;79;20972;-65
2022/06/28 08:28:32;;;;;;;2.83;2.37;;;;;;;28.59;38.61;95949.30;1797120;80;21015;-65
2022/06/28 08:30:59;;;;;;;3.42;2.10;;;;;;;28.64;36.83;95950.62;1797357;79;21034;-65
2022/06/28 08:33:26;;;;;;;4.10;1.90;;;;;;;28.79;37.84;95953.89;1797266;80;21047;-65
2022/06/28 08:35:53;;;;;;;2.47;2.00;;;;;;;28.86;36.27;95944.73;1797513;79;21003;-65
2022/06/28 08:38:20;;;;;;;3.05;2.17;;;;;;;29.03;37.08;95957.72;1797496;79;21000;-65
2022/06/28 08:40:47;;;;;;;2.67;2.17;;;;;;;28.93;37.10;95949.11;1797330;79;21557;-65
2022/06/28 08:43:14;;;;;;;2.27;2.00;;;;;;;28.96;37.89;95947.02;1797498;79;21003;-65
2022/06/28 08:45:44;;;;;;;2.25;2.05;;;;;;;29.11;37.29;95951.14;1797576;80;20996;-65
2022/06/28 08:48:25;;;;;;;2.67;1.90;;;;;;;29.27;35.31;95947.08;1797318;79;21032;-65
2022/06/28 08:50:54;;;;;;;3.10;2.27;;;;;;;29.18;35.07;95939.25;1797012;79;21079;-65
2022/06/28 08:53:23;;;;;;;3.17;2.50;;;;;;;29.20;34.88;95941.31;1797695;80;21027;-65
2022/06/28 08:55:51;;;;;;;4.67;2.20;;;;;;;29.03;35.45;95944.13;1797577;79;20988;-64
2022/06/28 08:58:18;;;;;;;2.80;2.20;;;;;;;28.97;36.08;95943.80;1797753;79;21012;-65
2022/06/28 09:00:47;;;;;;;6.45;2.20;;;;;;;29.04;35.11;95936.84;1797436;79;21031;-65
2022/06/28 09:03:15;;;;;;;3.75;2.00;;;;;;;29.19;35.90;95935.53;1797456;79;21051;-65
2022/06/28 09:05:42;;;;;;;3.80;2.20;;;;;;;29.48;36.80;95938.41;1797591;79;21427;-65
2022/06/28 09:08:09;;;;;;;2.60;2.00;;;;;;;29.70;34.64;95932.42;1797327;79;21008;-65
2022/06/28 09:10:36;;;;;;;3.50;2.22;;;;;;;29.90;35.15;95919.23;1797150;80;21058;-65
2022/06/28 09:13:12;;;;;;;4.15;2.17;;;;;;;30.18;35.38;95918.07;1797179;80;20988;-65
2022/06/28 09:15:58;;;;;;;2.90;2.15;;;;;;;30.38;35.66;95918.98;1801465;79;21007;-65
2022/06/28 09:18:39;;;;;;;3.60;2.45;;;;;;;30.60;33.98;95911.04;1797933;79;21442;-65
2022/06/28 09:21:11;;;;;;;3.17;2.05;;;;;;;30.74;35.12;95915.17;1805719;79;20976;-65
2022/06/28 09:23:40;;;;;;;;;;;;;;;30.58;32.54;95905.73;1807654;79;21469;-65
2022/06/28 09:26:18;;;;;;;2.67;2.10;;;;;;;30.65;33.91;95897.00;1805282;79;20110;-65
2022/06/28 09:28:48;;;;;;;2.45;1.95;;;;;;;30.69;33.77;95899.26;1805953;79;21031;-65
2022/06/28 09:31:23;;;;;;;2.70;2.40;;;;;;;30.82;31.92;95888.97;1805655;79;21003;-65
2022/06/28 09:34:06;;;;;;;4.60;2.08;;;;;;;30.86;32.97;95892.77;1805499;79;20972;-65
2022/06/28 09:36:41;;;;;;;2.90;2.37;;;;;;;30.90;32.61;95892.33;1805775;79;20998;-65
2022/06/28 09:39:18;;;;;;;3.25;2.02;;;;;;;31.07;32.48;95883.88;1804376;79;21485;-65
2022/06/28 09:41:55;;;;;;;2.10;1.90;;;;;;;31.25;32.75;95882.63;1805767;79;20975;-65
2022/06/28 09:44:28;;;;;;;2.37;1.98;;;;;;;31.44;30.95;95883.92;1805279;79;20980;-65
2022/06/28 09:46:57;;;;;;;2.58;2.15;;;;;;;31.54;30.07;95876.22;1805634;79;20987;-65
2022/06/28 09:49:29;;;;;;;3.37;2.35;;;;;;;31.54;31.37;95866.67;1805617;79;21035;-65
2022/06/28 09:51:59;;;;;;;2.72;2.30;;;;;;;31.61;31.59;95867.27;1805707;79;20963;-65
2022/06/28 09:54:29;;;;;;;4.30;2.00;;;;;;;31.61;31.20;95870.52;1805174;79;21019;-65
2022/06/28 09:56:57;;;;;;;3.62;2.30;;;;;;;31.60;31.92;95875.13;1805906;79;20983;-65
2022/06/28 09:59:27;;;;;;;5.47;2.35;;;;;;;31.74;32.26;95872.38;1805258;79;21579;-65
2022/06/28 10:01:56;;;;;;;2.55;2.33;;;;;;;31.84;31.45;95858.68;1805612;79;21488;-65
2022/06/28 10:04:24;;;;;;;3.83;2.22;;;;;;;31.92;31.85;95860.13;1805706;79;20995;-65
2022/06/28 10:06:51;;;;;;;4.12;2.12;;;;;;;31.96;32.01;95858.00;1805503;79;21535;-65
2022/06/28 10:09:21;;;;;;;2.95;2.33;;;;;;;32.08;31.26;95860.34;1805290;79;21019;-65
2022/06/28 10:17:50;;;;;;;2.40;2.20;;;;;;;32.41;31.32;95856.57;1805340;79;21078;-65
2022/06/28 10:20:26;;;;;;;4.67;2.30;;;;;;;32.36;30.35;95849.36;1805769;79;21000;-65
2022/06/28 10:22:56;;;;;;;3.80;1.98;;;;;;;32.12;30.85;95839.05;1805272;79;20983;-65
2022/06/28 10:25:25;;;;;;;2.47;2.10;;;;;;;32.15;31.32;95850.16;1789112;79;20992;-65
2022/06/28 10:27:53;;;;;;;2.40;2.20;;;;;;;32.25;30.96;95846.84;1805593;79;20975;-65
2022/06/28 10:30:23;;;;;;;4.60;2.30;;;;;;;32.22;30.20;95840.34;1805561;79;21003;-65
2022/06/28 10:33:04;;;;;;;3.67;2.35;;;;;;;32.27;31.28;95839.36;1805471;79;21497;-65
2022/06/28 10:35:42;;;;;;;4.45;2.30;;;;;;;32.41;31.10;95843.40;1794839;79;20984;-65
2022/06/28 10:38:14;;;;;;;2.10;1.77;;;;;;;32.61;31.07;95847.73;1805643;79;20976;-65
2022/06/28 10:40:49;;;;;;;4.15;2.40;;;;;;;32.67;29.95;95834.78;1805302;79;21051;-65
2022/06/28 10:43:38;;;;;;;3.60;2.10;;;;;;;32.82;30.39;95838.31;1805589;79;21046;-65
2022/06/28 10:46:08;;;;;;;2.70;2.50;;;;;;;32.95;30.57;95836.86;1805710;79;20971;-65
2022/06/28 10:48:52;;;;;;;2.50;2.30;;;;;;;33.06;30.23;95830.80;1805262;79;20979;-65
2022/06/28 10:51:20;;;;;;;2.55;2.35;;;;;;;33.00;30.51;95830.06;1797205;79;21497;-65
2022/06/28 10:54:04;;;;;;;7.17;2.22;;;;;;;33.26;30.49;95834.16;1805376;79;21023;-65
2022/06/28 10:56:47;;;;;;;4.17;2.02;;;;;;;33.47;29.81;95826.42;1805658;79;21422;-65
2022/06/28 10:59:16;;;;;;;3.05;2.12;;;;;;;33.71;29.21;95823.45;1805735;79;21034;-65
2022/06/28 11:01:51;;;;;;;3.72;2.10;;;;;;;33.82;29.07;95828.12;1805542;79;20932;-65
2022/06/28 11:04:24;;;;;;;4.00;2.10;;;;;;;33.87;28.04;95822.15;1805404;79;21020;-65
2022/06/28 11:07:08;;;;;;;6.03;2.65;;;;;;;33.76;27.45;95818.34;1805412;79;21011;-65
2022/06/28 11:09:59;;;;;;;2.15;1.72;;;;;;;33.82;27.72;95814.44;1803791;79;21051;-65
2022/06/28 11:12:37;;;;;;;2.65;2.10;;;;;;;33.82;27.76;95821.27;1804885;79;20968;-65
2022/06/28 11:15:11;;;;;;;2.70;2.00;;;;;;;33.98;27.94;95825.08;1805907;79;21035;-65
2022/06/28 11:17:44;;;;;;;2.40;2.20;;;;;;;34.00;28.08;95812.94;1805042;79;21016;-65
2022/06/28 11:20:22;;;;;;;2.72;2.12;;;;;;;34.21;28.17;95817.09;1805662;79;21016;-65
2022/06/28 11:22:51;;;;;;;3.75;2.20;;;;;;;33.98;27.61;95816.34;1805115;79;21142;-65
2022/06/28 11:25:21;;;;;;;3.02;2.62;;;;;;;33.88;27.51;95806.06;1805485;79;21528;-65
2022/06/28 11:27:55;;;;;;;4.72;2.30;;;;;;;33.79;28.83;95812.52;1805631;79;20972;-65
2022/06/28 11:30:27;;;;;;;3.58;2.33;;;;;;;33.93;28.20;95813.25;1805475;79;20948;-65
2022/06/28 11:32:58;;;;;;;3.75;2.30;;;;;;;33.90;28.54;95826.43;1805565;79;21054;-65
2022/06/28 11:35:30;;;;;;;6.97;2.20;;;;;;;33.88;28.56;95823.85;1806083;79;21030;-65
2022/06/28 11:38:03;;;;;;;4.37;2.20;;;;;;;34.10;28.16;95824.28;1805563;79;21058;-65
2022/06/28 11:40:45;;;;;;;4.70;2.10;;;;;;;34.30;28.43;95821.57;1805551;79;21046;-65
2022/06/28 11:43:15;;;;;;;6.45;2.20;;;;;;;34.37;27.98;95819.84;1805841;79;21076;-65
2022/06/28 11:45:49;;;;;;;3.58;2.10;;;;;;;34.39;27.77;95827.90;1804548;79;20975;-65
2022/06/28 11:48:20;;;;;;;4.60;2.20;;;;;;;34.35;27.40;95832.87;1804340;79;21000;-65
2022/06/28 11:50:54;;;;;;;4.37;2.30;;;;;;;34.38;27.39;95842.11;1798321;79;21078;-65
2022/06/28 11:53:22;;;;;;;4.45;2.70;;;;;;;34.46;27.05;95836.63;1804793;79;21020;-65
2022/06/28 11:55:56;;;;;;;7.87;2.37;;;;;;;33.93;26.35;95833.78;1805612;79;21031;-65
2022/06/28 11:58:32;;;;;;;2.62;2.20;;;;;;;33.99;27.42;95826.77;1805406;79;21462;-65
2022/06/28 12:01:18;;;;;;;3.80;2.30;;;;;;;34.04;27.94;95819.77;1805242;79;21079;-65
2022/06/28 12:03:50;;;;;;;4.37;2.35;;;;;;;34.24;27.30;95823.08;1804659;79;21015;-65